createdAt,value
2023-05-21T00:00:35.393Z,71.29
2023-05-21T00:03:13.799Z,71.34
2023-05-21T00:05:50.174Z,71.49
2023-05-21T00:08:23.914Z,71.62
2023-05-21T00:10:57.428Z,71.91
2023-05-21T00:13:30.729Z,72.08
2023-05-21T00:16:04.190Z,71.71
2023-05-21T00:18:39.222Z,71.74
2023-05-21T00:21:14.060Z,70.98
2023-05-21T00:23:48.140Z,71.92
2023-05-21T00:26:21.695Z,72.11
2023-05-21T00:28:54.997Z,72.14
2023-05-21T00:31:28.380Z,71.89
2023-05-21T00:34:01.637Z,73.14
2023-05-21T00:36:35.023Z,71.96
2023-05-21T00:39:08.851Z,72.19
2023-05-21T00:41:43.087Z,72.69
2023-05-21T00:44:18.387Z,72.40
2023-05-21T00:46:53.609Z,72.13
2023-05-21T00:49:27.314Z,72.48
2023-05-21T00:52:02.419Z,72.57
2023-05-21T00:54:36.220Z,72.18
2023-05-21T00:57:10.654Z,73.08
2023-05-21T00:59:44.488Z,71.77
2023-05-21T01:02:18.827Z,72.45
2023-05-21T01:04:52.285Z,72.94
2023-05-21T01:07:25.588Z,73.63
2023-05-21T01:09:59.082Z,73.04
2023-05-21T01:12:34.041Z,74.01
2023-05-21T01:15:10.707Z,74.46
2023-05-21T01:17:45.853Z,74.41
2023-05-21T01:20:21.266Z,75.37
2023-05-21T01:22:58.285Z,73.40
2023-05-21T01:25:31.901Z,73.95
2023-05-21T01:28:05.171Z,74.02
2023-05-21T01:30:40.408Z,74.57
2023-05-21T01:33:27.044Z,74.54
2023-05-21T01:36:15.824Z,74.49
2023-05-21T01:38:58.830Z,74.88
2023-05-21T01:41:39.429Z,75.17
2023-05-21T01:44:18.374Z,74.60
2023-05-21T01:46:52.543Z,74.62
2023-05-21T01:49:26.841Z,75.77
2023-05-21T01:52:02.504Z,74.95
2023-05-21T01:54:35.787Z,74.85
2023-05-21T01:57:09.134Z,74.99
2023-05-21T01:59:44.238Z,74.51
2023-05-21T02:02:17.862Z,74.35
2023-05-21T02:04:51.567Z,74.54
2023-05-21T02:07:24.797Z,75.31
2023-05-21T02:09:57.771Z,75.17
2023-05-21T02:12:31.086Z,75.32
2023-05-21T02:15:04.842Z,76.00
2023-05-21T02:17:38.831Z,75.88
2023-05-21T02:20:15.549Z,75.89
2023-05-21T02:22:50.803Z,74.42
2023-05-21T02:25:24.327Z,74.37
2023-05-21T02:27:57.606Z,75.05
2023-05-21T02:30:30.935Z,74.11
2023-05-21T02:33:04.287Z,74.92
2023-05-21T02:35:38.136Z,75.36
2023-05-21T02:38:13.568Z,75.45
2023-05-21T02:40:46.974Z,75.29
2023-05-21T02:43:20.198Z,74.50
2023-05-21T02:45:53.524Z,74.96
2023-05-21T02:48:26.801Z,74.96
2023-05-21T02:51:01.702Z,75.12
2023-05-21T02:53:35.071Z,74.58
2023-05-21T02:56:09.130Z,75.95
2023-05-21T02:58:42.684Z,75.37
2023-05-21T03:01:16.862Z,74.66
2023-05-21T03:03:50.528Z,75.12
2023-05-21T03:06:24.620Z,75.70
2023-05-21T03:08:57.965Z,76.06
2023-05-21T03:11:31.292Z,75.00
2023-05-21T03:14:04.529Z,75.25
2023-05-21T03:16:38.108Z,75.39
2023-05-21T03:19:12.263Z,75.55
2023-05-21T03:21:45.856Z,75.53
2023-05-21T03:24:19.246Z,75.42
2023-05-21T03:26:52.564Z,75.34
2023-05-21T03:29:25.804Z,74.92
2023-05-21T03:31:59.358Z,75.27
2023-05-21T03:34:34.478Z,75.43
2023-05-21T03:37:07.887Z,75.51
2023-05-21T03:39:41.250Z,75.50
2023-05-21T03:42:14.680Z,74.75
2023-05-21T03:44:47.937Z,74.52
2023-05-21T03:47:21.404Z,74.19
2023-05-21T03:49:54.764Z,75.02
2023-05-21T03:52:28.225Z,74.74
2023-05-21T03:55:01.690Z,75.16
2023-05-21T03:57:34.926Z,75.77
2023-05-21T04:00:10.826Z,76.34
2023-05-21T04:02:44.489Z,76.00
2023-05-21T04:05:18.104Z,76.08
2023-05-21T04:07:51.495Z,76.89
2023-05-21T04:10:24.847Z,76.94
2023-05-21T04:12:58.180Z,76.04
2023-05-21T04:15:31.462Z,77.21
2023-05-21T04:18:04.802Z,76.38
2023-05-21T04:20:38.361Z,77.17
2023-05-21T04:23:11.841Z,77.45
2023-05-21T04:25:45.223Z,77.69
2023-05-21T04:28:19.953Z,78.22
2023-05-21T04:30:53.291Z,78.05
2023-05-21T04:33:26.977Z,78.79
2023-05-21T04:36:00.748Z,78.18
2023-05-21T04:38:34.153Z,77.59
2023-05-21T04:41:10.782Z,78.30
2023-05-21T04:43:44.941Z,77.73
2023-05-21T04:46:18.447Z,78.65
2023-05-21T04:48:52.652Z,78.33
2023-05-21T04:51:27.215Z,78.63
2023-05-21T04:54:00.584Z,78.89
2023-05-21T04:56:33.888Z,79.64
2023-05-21T04:59:07.282Z,79.44
2023-05-21T05:01:41.152Z,80.03
2023-05-21T05:04:14.428Z,79.60
2023-05-21T05:06:47.726Z,80.32
2023-05-21T05:09:24.984Z,79.67
2023-05-21T05:11:58.548Z,79.71
2023-05-21T05:14:31.577Z,79.88
2023-05-21T05:17:04.945Z,80.48
2023-05-21T05:19:38.378Z,79.42
2023-05-21T05:22:13.606Z,79.76
2023-05-21T05:24:47.263Z,79.80
2023-05-21T05:27:20.519Z,80.10
2023-05-21T05:29:53.530Z,80.32
2023-05-21T05:32:26.965Z,79.44
2023-05-21T05:35:02.241Z,80.44
2023-05-21T05:37:36.181Z,79.75
2023-05-21T05:40:11.687Z,79.70
2023-05-21T05:42:44.948Z,78.97
2023-05-21T05:45:18.478Z,79.14
2023-05-21T05:47:51.851Z,79.38
2023-05-21T05:50:25.285Z,78.89
2023-05-21T05:52:59.110Z,79.31
2023-05-21T05:55:32.348Z,80.12
2023-05-21T05:58:05.605Z,78.94
2023-05-21T06:00:38.824Z,79.29
2023-05-21T06:03:12.544Z,79.77
2023-05-21T06:05:46.154Z,79.18
2023-05-21T06:08:19.771Z,78.87
2023-05-21T06:10:53.018Z,79.26
2023-05-21T06:13:26.349Z,79.99
2023-05-21T06:15:59.437Z,79.53
2023-05-21T06:18:33.134Z,79.84
2023-05-21T06:21:06.614Z,79.77
2023-05-21T06:23:39.869Z,79.59
2023-05-21T06:26:13.156Z,79.52
2023-05-21T06:28:46.383Z,79.90
2023-05-21T06:31:22.313Z,79.75
2023-05-21T06:33:56.164Z,79.56
2023-05-21T06:36:32.360Z,79.84
2023-05-21T06:39:07.063Z,79.50
2023-05-21T06:41:40.645Z,79.40
2023-05-21T06:44:15.633Z,79.38
2023-05-21T06:46:48.878Z,79.33
2023-05-21T06:49:22.169Z,78.94
2023-05-21T06:51:55.460Z,78.44
2023-05-21T06:54:28.823Z,78.64
2023-05-21T06:57:02.476Z,78.36
2023-05-21T06:59:35.968Z,78.32
2023-05-21T07:02:09.617Z,78.26
2023-05-21T07:04:43.199Z,78.06
2023-05-21T07:07:16.570Z,77.54
2023-05-21T07:09:49.956Z,77.84
2023-05-21T07:12:23.299Z,77.76
2023-05-21T07:14:58.753Z,77.54
2023-05-21T07:17:33.017Z,78.06
2023-05-21T07:20:07.700Z,77.47
2023-05-21T07:22:43.044Z,77.46
2023-05-21T07:25:16.660Z,76.90
2023-05-21T07:27:50.024Z,77.12
2023-05-21T07:30:23.496Z,77.07
2023-05-21T07:32:56.509Z,76.89
2023-05-21T07:35:30.046Z,76.90
2023-05-21T07:38:03.853Z,77.01
2023-05-21T07:40:37.250Z,76.34
2023-05-21T07:43:10.831Z,76.64
2023-05-21T07:45:44.476Z,76.61
2023-05-21T07:48:17.435Z,76.16
2023-05-21T07:50:52.494Z,76.38
2023-05-21T07:53:26.051Z,76.58
2023-05-21T07:56:00.533Z,75.66
2023-05-21T07:58:35.193Z,76.20
2023-05-21T08:01:08.899Z,76.29
2023-05-21T08:03:42.066Z,74.24
2023-05-21T08:06:15.681Z,74.17
2023-05-21T08:08:48.996Z,74.22
2023-05-21T08:11:23.333Z,73.90
2023-05-21T08:13:56.775Z,72.83
2023-05-21T08:16:30.198Z,72.73
2023-05-21T08:19:03.632Z,72.76
2023-05-21T08:21:37.322Z,73.45
2023-05-21T08:24:10.635Z,72.04
2023-05-21T08:26:44.666Z,72.48
2023-05-21T08:29:18.267Z,71.86
2023-05-21T08:31:51.633Z,72.43
2023-05-21T08:34:24.720Z,70.84
2023-05-21T08:36:58.019Z,71.09
2023-05-21T08:39:31.300Z,70.71
2023-05-21T08:42:35.217Z,71.05
2023-05-21T08:45:12.576Z,70.70
2023-05-21T08:47:47.717Z,70.94
2023-05-21T08:50:22.825Z,69.68
2023-05-21T08:52:58.892Z,69.92
2023-05-21T08:55:34.987Z,70.09
2023-05-21T08:58:09.778Z,70.05
2023-05-21T09:00:43.512Z,68.85
2023-05-21T09:03:17.518Z,68.86
2023-05-21T09:05:52.730Z,68.94
2023-05-21T09:08:36.378Z,69.56
2023-05-21T09:11:10.094Z,68.26
2023-05-21T09:13:46.389Z,68.53
2023-05-21T09:16:20.515Z,68.03
2023-05-21T09:18:54.344Z,67.67
2023-05-21T09:21:33.226Z,68.31
2023-05-21T09:24:07.607Z,67.86
2023-05-21T09:26:43.328Z,67.66
2023-05-21T09:29:18.261Z,67.47
2023-05-21T09:31:54.810Z,66.77
2023-05-21T09:34:30.909Z,66.78
2023-05-21T09:37:06.545Z,66.29
2023-05-21T09:39:48.094Z,66.42
2023-05-21T09:42:23.651Z,66.02
2023-05-21T09:44:59.071Z,64.29
2023-05-21T09:47:32.654Z,64.81
2023-05-21T09:50:06.178Z,65.20
2023-05-21T09:52:42.336Z,64.58
2023-05-21T09:55:22.961Z,65.05
2023-05-21T09:57:58.951Z,64.40
2023-05-21T10:00:34.917Z,64.00
2023-05-21T10:03:16.965Z,63.42
2023-05-21T10:05:53.223Z,63.53
2023-05-21T10:08:31.800Z,63.90
2023-05-21T10:11:06.650Z,63.77
2023-05-21T10:13:50.105Z,63.01
2023-05-21T10:16:24.004Z,62.87
2023-05-21T10:18:58.814Z,62.00
2023-05-21T10:21:34.765Z,61.34
2023-05-21T10:24:09.508Z,61.55
2023-05-21T10:26:45.713Z,62.08
2023-05-21T10:29:23.826Z,63.56
2023-05-21T10:31:58.413Z,62.08
2023-05-21T10:34:34.141Z,60.71
2023-05-21T10:37:10.757Z,60.45
2023-05-21T10:39:45.825Z,61.33
2023-05-21T10:42:48.528Z,60.60
2023-05-21T10:45:32.799Z,58.73
2023-05-21T10:48:28.960Z,58.38
2023-05-21T10:51:26.403Z,58.47
2023-05-21T10:54:39.802Z,57.84
2023-05-21T10:57:35.896Z,59.38
2023-05-21T11:00:13.278Z,56.65
2023-05-21T11:02:49.350Z,56.63
2023-05-21T11:05:52.504Z,56.04
2023-05-21T11:08:31.534Z,56.08
2023-05-21T11:11:06.076Z,55.35
2023-05-21T11:13:51.910Z,54.47
2023-05-21T11:16:31.155Z,55.16
2023-05-21T11:19:08.011Z,56.04
2023-05-21T11:21:43.170Z,56.15
2023-05-21T11:24:25.535Z,54.18
2023-05-21T11:27:08.722Z,53.71
2023-05-21T11:29:56.521Z,53.11
2023-05-21T11:32:30.116Z,53.72
2023-05-21T11:35:05.567Z,52.66
2023-05-21T11:37:41.527Z,53.47
2023-05-21T11:40:30.173Z,52.86
2023-05-21T11:43:03.911Z,52.33
2023-05-21T11:45:38.025Z,51.90
2023-05-21T11:48:16.248Z,52.09
2023-05-21T11:50:51.528Z,52.63
2023-05-21T11:53:24.952Z,51.11
2023-05-21T11:55:59.675Z,50.82
2023-05-21T11:58:36.234Z,50.02
2023-05-21T12:01:09.269Z,51.01
2023-05-21T12:03:42.865Z,49.90
2023-05-21T12:06:17.377Z,49.74
2023-05-21T12:08:58.341Z,48.80
2023-05-21T12:11:32.049Z,49.23
2023-05-21T12:14:07.688Z,47.81
2023-05-21T12:16:42.662Z,48.15
2023-05-21T12:19:18.091Z,48.00
2023-05-21T12:21:51.448Z,46.71
2023-05-21T12:24:25.381Z,46.82
2023-05-21T12:27:01.364Z,46.81
2023-05-21T12:29:37.016Z,46.60
2023-05-21T12:32:13.497Z,46.66
2023-05-21T12:34:49.709Z,47.55
2023-05-21T12:37:31.215Z,47.17
2023-05-21T12:40:07.744Z,47.49
2023-05-21T12:42:42.589Z,46.26
2023-05-21T12:45:18.777Z,45.86
2023-05-21T12:47:56.684Z,45.82
2023-05-21T12:50:30.296Z,46.32
2023-05-21T12:53:03.822Z,45.78
2023-05-21T12:55:38.721Z,45.67
2023-05-21T12:58:17.099Z,45.12
2023-05-21T13:00:50.481Z,46.81
2023-05-21T13:03:27.226Z,46.10
2023-05-21T13:06:06.863Z,45.11
2023-05-21T13:08:40.741Z,45.36
2023-05-21T13:11:14.098Z,45.43
2023-05-21T13:13:47.342Z,45.33
2023-05-21T13:16:22.082Z,45.42
2023-05-21T13:18:55.274Z,45.83
2023-05-21T13:21:28.649Z,47.29
2023-05-21T13:24:02.027Z,45.76
2023-05-21T13:26:35.468Z,45.11
2023-05-21T13:29:09.822Z,45.27
2023-05-21T13:31:44.108Z,44.15
2023-05-21T13:34:17.186Z,44.70
2023-05-21T13:36:51.039Z,44.28
2023-05-21T13:39:27.550Z,44.09
2023-05-21T13:42:01.546Z,44.13
2023-05-21T13:44:36.546Z,45.11
2023-05-21T13:47:12.068Z,44.46
2023-05-21T13:49:45.338Z,43.75
2023-05-21T13:52:18.634Z,43.79
2023-05-21T13:54:52.014Z,43.90
2023-05-21T13:57:26.767Z,44.06
2023-05-21T14:00:00.814Z,43.41
2023-05-21T14:02:34.621Z,43.21
2023-05-21T14:05:07.808Z,44.14
2023-05-21T14:07:41.810Z,43.73
2023-05-21T14:10:15.749Z,44.43
2023-05-21T14:12:49.164Z,44.02
2023-05-21T14:15:22.527Z,44.61
2023-05-21T14:17:56.042Z,43.76
2023-05-21T14:20:29.157Z,44.94
2023-05-21T14:23:02.473Z,44.91
2023-05-21T14:25:36.074Z,44.78
2023-05-21T14:28:10.609Z,43.79
2023-05-21T14:30:43.936Z,43.96
2023-05-21T14:33:17.432Z,44.00
2023-05-21T14:35:50.434Z,44.67
2023-05-21T14:38:23.782Z,43.70
2023-05-21T14:40:58.557Z,43.97
2023-05-21T14:43:32.134Z,44.08
2023-05-21T14:46:05.580Z,44.56
2023-05-21T14:48:39.254Z,44.42
2023-05-21T14:51:13.619Z,44.48
2023-05-21T14:53:46.916Z,43.35
2023-05-21T14:56:21.854Z,44.11
2023-05-21T14:58:55.205Z,44.65
2023-05-21T15:01:28.893Z,43.87
2023-05-21T15:04:03.485Z,43.69
2023-05-21T15:06:36.786Z,43.35
2023-05-21T15:09:10.062Z,43.09
2023-05-21T15:11:44.564Z,44.00
2023-05-21T15:14:18.116Z,43.40
2023-05-21T15:16:51.492Z,44.11
2023-05-21T15:19:25.406Z,42.88
2023-05-21T15:21:58.973Z,42.08
2023-05-21T15:24:32.283Z,42.05
2023-05-21T15:27:05.680Z,44.27
2023-05-21T15:29:39.329Z,43.18
2023-05-21T15:32:13.065Z,43.29
2023-05-21T15:34:46.558Z,42.22
2023-05-21T15:37:20.082Z,42.45
2023-05-21T15:39:54.033Z,41.49
2023-05-21T15:42:31.085Z,42.41
2023-05-21T15:45:04.661Z,41.23
2023-05-21T15:47:42.717Z,40.91
2023-05-21T15:50:17.356Z,41.11
2023-05-21T15:52:52.371Z,40.64
2023-05-21T15:55:26.916Z,40.61
2023-05-21T15:58:02.219Z,41.87
2023-05-21T16:00:37.755Z,41.52
2023-05-21T16:03:11.900Z,42.40
2023-05-21T16:05:45.540Z,43.07
2023-05-21T16:08:18.580Z,43.58
2023-05-21T16:10:51.911Z,43.63
2023-05-21T16:13:25.222Z,43.36
2023-05-21T16:15:58.589Z,43.00
2023-05-21T16:18:31.974Z,43.49
2023-05-21T16:21:05.419Z,44.13
2023-05-21T16:23:38.860Z,44.55
2023-05-21T16:26:13.965Z,44.51
2023-05-21T16:28:47.300Z,44.92
2023-05-21T16:31:20.663Z,44.70
2023-05-21T16:33:54.026Z,44.83
2023-05-21T16:36:27.476Z,44.26
2023-05-21T16:39:00.659Z,44.64
2023-05-21T16:41:34.619Z,44.44
2023-05-21T16:44:07.882Z,44.23
2023-05-21T16:46:41.264Z,43.47
2023-05-21T16:49:14.886Z,43.51
2023-05-21T16:51:48.287Z,43.42
2023-05-21T16:54:21.703Z,43.00
2023-05-21T16:56:55.254Z,42.64
2023-05-21T16:59:28.561Z,43.54
2023-05-21T17:02:02.318Z,42.62
2023-05-21T17:04:36.092Z,43.47
2023-05-21T17:07:10.769Z,43.46
2023-05-21T17:09:43.756Z,43.82
2023-05-21T17:12:17.054Z,44.36
2023-05-21T17:14:50.362Z,43.97
2023-05-21T17:17:23.811Z,43.63
2023-05-21T17:19:57.541Z,43.08
2023-05-21T17:22:30.938Z,42.75
2023-05-21T17:25:04.213Z,43.24
2023-05-21T17:27:37.843Z,42.90
2023-05-21T17:30:14.642Z,42.51
2023-05-21T17:32:47.970Z,42.40
2023-05-21T17:35:21.707Z,42.25
2023-05-21T17:37:55.236Z,41.87
2023-05-21T17:40:28.199Z,44.18
2023-05-21T17:43:01.464Z,43.63
2023-05-21T17:45:35.170Z,43.05
2023-05-21T17:48:09.910Z,43.08
2023-05-21T17:50:43.334Z,43.42
2023-05-21T17:53:17.655Z,44.25
2023-05-21T17:55:50.923Z,44.91
2023-05-21T17:58:24.328Z,43.60
2023-05-21T18:00:57.625Z,44.99
2023-05-21T18:03:31.211Z,45.97
2023-05-21T18:06:05.038Z,45.78
2023-05-21T18:08:38.489Z,46.75
2023-05-21T18:11:11.509Z,47.61
2023-05-21T18:13:44.803Z,47.15
2023-05-21T18:16:18.196Z,45.24
2023-05-21T18:18:51.836Z,46.69
2023-05-21T18:21:26.145Z,46.21
2023-05-21T18:23:59.518Z,47.30
2023-05-21T18:26:32.515Z,46.88
2023-05-21T18:29:05.850Z,47.09
2023-05-21T18:31:39.217Z,47.05
2023-05-21T18:34:12.975Z,46.93
2023-05-21T18:36:46.649Z,47.35
2023-05-21T18:39:24.447Z,47.81
2023-05-21T18:44:33.852Z,47.62
2023-05-21T18:47:07.559Z,49.02
2023-05-21T18:49:41.201Z,47.52
2023-05-21T18:52:14.616Z,47.81
2023-05-21T18:54:47.994Z,47.96
2023-05-21T18:57:21.064Z,47.61
2023-05-21T18:59:54.409Z,48.72
2023-05-21T19:02:29.680Z,48.58
2023-05-21T19:05:03.146Z,48.33
2023-05-21T19:07:37.140Z,48.65
2023-05-21T19:10:14.124Z,49.17
2023-05-21T19:12:47.700Z,49.07
2023-05-21T19:15:22.147Z,49.75
2023-05-21T19:17:55.628Z,49.58
2023-05-21T19:20:30.388Z,49.54
2023-05-21T19:23:04.367Z,50.40
2023-05-21T19:25:38.292Z,50.10
2023-05-21T19:28:12.049Z,50.58
2023-05-21T19:30:45.407Z,50.73
2023-05-21T19:33:18.847Z,50.25
2023-05-21T19:35:52.812Z,50.47
2023-05-21T19:38:26.359Z,51.35
2023-05-21T19:40:59.633Z,51.70
2023-05-21T19:43:32.658Z,51.79
2023-05-21T19:46:06.402Z,51.98
2023-05-21T19:48:40.101Z,52.00
2023-05-21T19:51:14.287Z,52.64
2023-05-21T19:53:47.562Z,53.01
2023-05-21T19:56:21.840Z,52.32
2023-05-21T19:58:54.843Z,52.56
2023-05-21T20:01:28.986Z,53.25
2023-05-21T20:04:02.516Z,53.13
2023-05-21T20:06:36.271Z,53.41
2023-05-21T20:09:10.801Z,52.23
2023-05-21T20:11:44.775Z,51.92
2023-05-21T20:14:18.540Z,52.39
2023-05-21T20:16:53.547Z,51.75
2023-05-21T20:19:26.941Z,51.96
2023-05-21T20:22:00.725Z,51.59
2023-05-21T20:24:34.125Z,51.80
2023-05-21T20:27:07.418Z,51.63
2023-05-21T20:29:42.817Z,51.60
2023-05-21T20:32:16.195Z,51.14
2023-05-21T20:35:02.334Z,51.67
2023-05-21T20:37:37.196Z,51.25
2023-05-21T20:40:14.859Z,51.07
2023-05-21T20:42:50.241Z,52.14
2023-05-21T20:45:23.500Z,51.15
2023-05-21T20:47:56.891Z,51.79
2023-05-21T20:50:30.215Z,51.63
2023-05-21T20:53:03.594Z,51.93
2023-05-21T20:55:37.096Z,51.78
2023-05-21T20:58:10.657Z,52.01
2023-05-21T21:00:44.880Z,52.30
2023-05-21T21:03:18.802Z,52.35
2023-05-21T21:05:52.902Z,52.58
2023-05-21T21:08:26.513Z,52.67
2023-05-21T21:10:59.957Z,52.53
2023-05-21T21:13:33.309Z,52.22
2023-05-21T21:16:06.853Z,52.85
2023-05-21T21:18:40.404Z,52.38
2023-05-21T21:21:13.701Z,52.77
2023-05-21T21:23:47.098Z,52.29
2023-05-21T21:26:22.004Z,52.11
2023-05-21T21:28:56.353Z,52.31
2023-05-21T21:31:29.991Z,52.56
2023-05-21T21:34:03.481Z,52.73
2023-05-21T21:36:44.246Z,53.17
2023-05-21T21:39:17.964Z,52.75
2023-05-21T21:41:51.236Z,53.41
2023-05-21T21:44:24.530Z,53.41
2023-05-21T21:46:57.764Z,53.33
2023-05-21T21:49:31.182Z,53.65
2023-05-21T21:52:04.743Z,53.71
2023-05-21T21:54:37.999Z,54.19
2023-05-21T21:57:11.271Z,54.00
2023-05-21T21:59:44.574Z,54.40
2023-05-21T22:02:18.263Z,54.18
2023-05-21T22:04:51.988Z,54.38
2023-05-21T22:07:25.660Z,54.87
2023-05-21T22:09:58.901Z,54.88
2023-05-21T22:12:33.671Z,54.94
2023-05-21T22:15:07.938Z,55.29
2023-05-21T22:17:41.125Z,54.99
2023-05-21T22:20:17.479Z,55.38
2023-05-21T22:22:52.383Z,55.05
2023-05-21T22:25:27.264Z,55.15
2023-05-21T22:28:00.647Z,55.96
2023-05-21T22:30:33.955Z,55.83
2023-05-21T22:33:07.229Z,55.70
2023-05-21T22:35:40.788Z,56.25
2023-05-21T22:38:14.115Z,56.47
2023-05-21T22:40:47.543Z,56.43
2023-05-21T22:43:20.966Z,57.05
2023-05-21T22:45:54.185Z,56.64
2023-05-21T22:48:30.476Z,57.35
2023-05-21T22:51:04.515Z,57.48
2023-05-21T22:53:38.798Z,56.77
2023-05-21T22:56:12.223Z,57.82
2023-05-21T22:58:45.803Z,57.07
2023-05-21T23:01:19.237Z,57.87
2023-05-21T23:03:52.489Z,57.93
2023-05-21T23:06:25.799Z,57.42
2023-05-21T23:08:59.058Z,57.74
2023-05-21T23:11:32.591Z,58.37
2023-05-21T23:14:06.075Z,58.28
2023-05-21T23:16:43.741Z,57.99
2023-05-21T23:19:18.020Z,58.34
2023-05-21T23:21:52.760Z,58.52
2023-05-21T23:24:26.413Z,58.71
2023-05-21T23:27:02.792Z,58.35
2023-05-21T23:29:36.093Z,59.09
2023-05-21T23:32:10.570Z,59.50
2023-05-21T23:34:44.693Z,59.32
2023-05-21T23:37:18.329Z,59.26
2023-05-21T23:39:51.896Z,60.01
2023-05-21T23:42:25.582Z,59.72
2023-05-21T23:44:58.851Z,59.54
2023-05-21T23:47:32.117Z,59.36
2023-05-21T23:50:05.484Z,60.31
2023-05-21T23:52:38.910Z,60.16
2023-05-21T23:55:14.911Z,60.10
2023-05-21T23:57:48.572Z,60.39
